createdAt,value
2022-11-02T00:00:16.359Z,10.2
2022-11-02T00:06:05.947Z,10
2022-11-02T00:11:33.834Z,9.9
2022-11-02T00:16:46.565Z,9.9
2022-11-02T00:22:18.277Z,9.9
2022-11-02T00:27:59.301Z,9.9
2022-11-02T00:33:22.961Z,9.9
2022-11-02T00:39:02.459Z,10.2
2022-11-02T00:44:50.421Z,10.3
2022-11-02T00:50:16.346Z,10.4
2022-11-02T00:55:47.032Z,10.6
2022-11-02T01:01:32.955Z,10.5
2022-11-02T01:07:07.926Z,10.4
2022-11-02T01:12:32.078Z,10.6
2022-11-02T01:18:12.065Z,10.3
2022-11-02T01:23:20.843Z,10.5
2022-11-02T01:29:01.561Z,10.6
2022-11-02T01:34:34.495Z,10.6
2022-11-02T01:40:19.351Z,10.6
2022-11-02T01:45:35.046Z,10.6
2022-11-02T01:51:15.130Z,10.5
2022-11-02T01:56:46.426Z,10.4
2022-11-02T02:02:22.292Z,10.5
2022-11-02T02:07:54.924Z,10.6
2022-11-02T02:13:33.909Z,10.6
2022-11-02T02:19:07.728Z,10.5
2022-11-02T02:24:45.733Z,10.4
2022-11-02T02:29:58.846Z,10.4
2022-11-02T02:35:50.349Z,10.5
2022-11-02T02:41:24.351Z,10.5
2022-11-02T02:46:56.342Z,10.6
2022-11-02T02:52:21.221Z,10.5
2022-11-02T02:57:46.914Z,10.5
2022-11-02T03:03:20.906Z,10.4
2022-11-02T03:08:49.635Z,10.5
2022-11-02T03:14:26.719Z,10.6
2022-11-02T03:19:49.625Z,10.6
2022-11-02T03:25:49.808Z,10.6
2022-11-02T03:31:22.170Z,10.5
2022-11-02T03:36:31.686Z,10.5
2022-11-02T03:42:08.228Z,10.5
2022-11-02T03:47:45.822Z,10.5
2022-11-02T03:53:32.434Z,10.6
2022-11-02T03:58:50.477Z,10.6
2022-11-02T04:04:17.937Z,10.6
2022-11-02T04:09:56.233Z,10.6
2022-11-02T04:15:21.274Z,10.7
2022-11-02T04:21:10.338Z,10.7
2022-11-02T04:26:32.362Z,10.7
2022-11-02T04:32:19.211Z,10.7
2022-11-02T04:37:57.603Z,10.6
2022-11-02T04:43:24.672Z,10.4
2022-11-02T04:48:53.343Z,10.2
2022-11-02T04:54:26.416Z,10.2
2022-11-02T04:59:45.948Z,10.2
2022-11-02T05:05:33.550Z,10
2022-11-02T05:10:53.018Z,10
2022-11-02T05:16:35.789Z,9.8
2022-11-02T05:21:55.643Z,9.8
2022-11-02T05:27:31.336Z,9.8
2022-11-02T05:33:11.099Z,9.9
2022-11-02T05:38:56.609Z,10
2022-11-02T05:44:15.091Z,10.1
2022-11-02T05:49:45.594Z,10.2
2022-11-02T05:55:22.652Z,10.2
2022-11-02T06:00:52.345Z,10.3
2022-11-02T06:06:35.225Z,10.4
2022-11-02T06:11:54.665Z,10.5
2022-11-02T06:17:21.818Z,10.5
2022-11-02T06:23:17.800Z,10.5
2022-11-02T06:28:40.126Z,10.4
2022-11-02T06:34:10.701Z,10.4
2022-11-02T06:39:34.740Z,10.5
2022-11-02T06:45:26.493Z,10.6
2022-11-02T06:50:54.921Z,10.7
2022-11-02T06:56:26.185Z,10.8
2022-11-02T07:02:04.240Z,10.8
2022-11-02T07:07:39.842Z,10.8
2022-11-02T07:12:50.682Z,10.9
2022-11-02T07:18:23.876Z,11.1
2022-11-02T07:24:02.951Z,11.1
2022-11-02T07:29:48.950Z,11.2
2022-11-02T07:35:18.746Z,11.3
2022-11-02T07:40:52.691Z,11.3
2022-11-02T07:46:16.157Z,11.4
2022-11-02T07:51:49.867Z,11.4
2022-11-02T07:57:33.964Z,11.4
2022-11-02T08:03:15.349Z,11.4
2022-11-02T08:08:31.059Z,11.4
2022-11-02T08:14:13.649Z,11.5
2022-11-02T08:19:53.994Z,11.4
2022-11-02T08:25:00.624Z,11.5
2022-11-02T08:30:48.790Z,11.6
2022-11-02T08:36:20.544Z,11.6
2022-11-02T08:42:02.895Z,11.6
2022-11-02T08:47:31.708Z,11.6
2022-11-02T08:52:51.304Z,11.7
2022-11-02T08:58:29.086Z,12
2022-11-02T09:04:12.883Z,11.9
2022-11-02T09:09:33.011Z,12.1
2022-11-02T09:15:05.858Z,12.3
2022-11-02T09:20:36.195Z,12.2
2022-11-02T09:26:32.241Z,12.4
2022-11-02T09:31:57.864Z,12.5
2022-11-02T09:37:28.355Z,13
2022-11-02T09:43:03.910Z,13
2022-11-02T09:48:31.610Z,13
2022-11-02T09:54:20.813Z,12.9
2022-11-02T09:59:28.656Z,13.2
2022-11-02T10:05:20.945Z,13.2
2022-11-02T10:10:56.064Z,13.4
2022-11-02T10:16:22.357Z,13.8
2022-11-02T10:22:08.235Z,13.7
2022-11-02T10:27:28.357Z,14.3
2022-11-02T10:33:10.145Z,14.5
2022-11-02T10:38:41.188Z,14.7
2022-11-02T10:44:10.875Z,14.6
2022-11-02T10:49:56.761Z,14.9
2022-11-02T10:55:26.023Z,14.8
2022-11-02T11:00:40.927Z,14.7
2022-11-02T11:06:28.897Z,15.4
2022-11-02T11:11:58.988Z,15.1
2022-11-02T11:23:07.738Z,15.5
2022-11-02T11:28:37.461Z,15.2
2022-11-02T11:34:20.049Z,15
2022-11-02T11:39:53.898Z,15.1
2022-11-02T11:45:29.027Z,15.2
2022-11-02T11:50:42.603Z,15.1
2022-11-02T11:56:16.864Z,14.5
2022-11-02T12:02:00.772Z,14.7
2022-11-02T12:07:24.358Z,15.7
2022-11-02T12:13:03.721Z,15.9
2022-11-02T12:18:52.291Z,15.8
2022-11-02T12:24:11.594Z,15.8
2022-11-02T12:29:43.043Z,15.4
2022-11-02T12:35:30.223Z,15.3
2022-11-02T12:40:51.869Z,15.4
2022-11-02T12:46:49.060Z,15.5
2022-11-02T12:52:09.895Z,15.4
2022-11-02T12:57:34.207Z,15.4
2022-11-02T13:03:27.791Z,15.6
2022-11-02T13:09:05.260Z,15.7
2022-11-02T13:14:40.762Z,15.9
2022-11-02T13:20:03.778Z,16
2022-11-02T13:25:52.579Z,15.8
2022-11-02T13:31:22.803Z,15.7
2022-11-02T13:36:39.981Z,15.7
2022-11-02T13:42:19.079Z,15.7
2022-11-02T13:47:55.225Z,16.1
2022-11-02T13:53:33.566Z,16
2022-11-02T13:58:59.182Z,16
2022-11-02T14:04:38.666Z,15.7
2022-11-02T14:10:09.362Z,15.6
2022-11-02T14:16:03.625Z,15.7
2022-11-02T14:21:18.770Z,15.9
2022-11-02T14:27:12.551Z,15.8
2022-11-02T14:32:30.213Z,15.7
2022-11-02T14:38:06.497Z,15.9
2022-11-02T14:43:35.381Z,16
2022-11-02T14:49:25.330Z,15.6
2022-11-02T14:55:03.143Z,15.4
2022-11-02T15:00:20.388Z,15.3
2022-11-02T15:05:46.655Z,15.2
2022-11-02T15:11:21.104Z,15
2022-11-02T15:17:02.836Z,14.9
2022-11-02T15:22:50.270Z,14.6
2022-11-02T15:28:04.597Z,14.4
2022-11-02T15:33:47.514Z,14.2
2022-11-02T15:39:11.815Z,14
2022-11-02T15:44:52.049Z,13.8
2022-11-02T15:50:16.500Z,13.6
2022-11-02T15:56:09.805Z,13.4
2022-11-02T16:01:19.951Z,13.1
2022-11-02T16:07:15.638Z,12.9
2022-11-02T16:12:52.837Z,12.7
2022-11-02T16:18:16.691Z,12.7
2022-11-02T16:23:45.542Z,12.7
2022-11-02T16:29:30.002Z,12.5
2022-11-02T16:35:01.127Z,12.3
2022-11-02T16:40:26.177Z,12.2
2022-11-02T16:45:52.267Z,12.3
2022-11-02T16:51:33.997Z,12.1
2022-11-02T16:57:17.136Z,11.9
2022-11-02T17:02:32.987Z,11.7
2022-11-02T17:08:24.887Z,11
2022-11-02T17:13:35.754Z,10.8
2022-11-02T17:19:15.543Z,10.6
2022-11-02T17:24:34.782Z,10.8
2022-11-02T17:30:35.218Z,11.2
2022-11-02T17:35:47.601Z,11.1
2022-11-02T17:41:28.775Z,11
2022-11-02T17:46:56.569Z,11
2022-11-02T17:52:36.953Z,10.7
2022-11-02T17:58:06.010Z,10.5
2022-11-02T18:03:32.083Z,10.2
2022-11-02T18:09:00.251Z,10.5
2022-11-02T18:14:48.720Z,10.5
2022-11-02T18:20:26.300Z,10.7
2022-11-02T18:25:40.847Z,10.9
2022-11-02T18:31:14.890Z,10.9
2022-11-02T18:36:48.960Z,10.8
2022-11-02T18:42:17.211Z,10.4
2022-11-02T18:48:15.781Z,10.5
2022-11-02T18:53:48.471Z,10.4
2022-11-02T18:59:13.280Z,10.2
2022-11-02T19:04:37.905Z,10.1
2022-11-02T19:10:15.834Z,9.6
2022-11-02T19:15:56.796Z,9.5
2022-11-02T19:21:06.958Z,9.7
2022-11-02T19:26:39.345Z,10
2022-11-02T19:32:12.615Z,9.8
2022-11-02T19:37:55.453Z,9.5
2022-11-02T19:43:33.701Z,9.6
2022-11-02T19:48:55.685Z,9.6
2022-11-02T19:54:21.928Z,9.6
2022-11-02T20:00:08.348Z,9.6
2022-11-02T20:05:32.658Z,9.6
2022-11-02T20:11:01.641Z,9.7
2022-11-02T20:16:45.240Z,9.5
2022-11-02T20:22:32.942Z,9.6
2022-11-02T20:27:51.502Z,9.4
2022-11-02T20:33:27.799Z,9.3
2022-11-02T20:38:59.315Z,9.4
2022-11-02T20:44:34.323Z,9.5
2022-11-02T20:50:18.490Z,9.5
2022-11-02T20:55:47.746Z,9.3
2022-11-02T21:01:22.784Z,9.5
2022-11-02T21:06:42.044Z,9.8
2022-11-02T21:12:16.413Z,9.2
2022-11-02T21:17:42.102Z,9.1
2022-11-02T21:23:07.763Z,9.2
2022-11-02T21:29:00.670Z,9.5
2022-11-02T21:34:30.465Z,9.1
2022-11-02T21:40:10.228Z,9.2
2022-11-02T21:45:26.086Z,8.8
2022-11-02T21:51:11.697Z,8.1
2022-11-02T21:56:50.544Z,8
2022-11-02T22:02:16.212Z,7.9
2022-11-02T22:07:53.194Z,7.9
2022-11-02T22:13:06.068Z,7.9
2022-11-02T22:18:58.058Z,7.9
2022-11-02T22:24:27.196Z,7.7
2022-11-02T22:29:57.540Z,7.6
2022-11-02T22:35:38.608Z,7.6
2022-11-02T22:41:07.311Z,7.5
2022-11-02T22:46:34.167Z,7.8
2022-11-02T22:52:03.243Z,7.7
2022-11-02T22:57:24.016Z,7.7
2022-11-02T23:02:59.545Z,7.7
2022-11-02T23:08:46.417Z,7.8
2022-11-02T23:14:14.604Z,7.8
2022-11-02T23:19:34.938Z,7.6
2022-11-02T23:25:19.489Z,7.8
2022-11-02T23:30:57.000Z,7.8
2022-11-02T23:36:24.984Z,7.6
2022-11-02T23:41:51.656Z,7.3
2022-11-02T23:47:26.600Z,7.1
2022-11-02T23:52:56.113Z,7.2
2022-11-02T23:58:38.113Z,7.1
